createdAt,value
2022-12-01T12:42:43.790Z,79.60
2022-12-01T12:45:52.116Z,80.60
2022-12-01T12:48:45.685Z,80.30
2022-12-01T12:51:42.532Z,80.50
2022-12-01T12:54:20.032Z,79.60
2022-12-01T12:56:59.014Z,80.60
2022-12-01T12:59:39.404Z,80.40
2022-12-01T13:02:33.109Z,79.20
2022-12-01T13:05:12.678Z,77.50
2022-12-01T13:07:59.450Z,77.60
2022-12-01T13:10:46.132Z,76.70
2022-12-01T13:13:37.477Z,75.90
2022-12-01T13:16:12.360Z,76.30
2022-12-01T13:18:57.463Z,75.90
2022-12-01T13:21:26.699Z,75.40
2022-12-01T13:23:56.214Z,75.30
2022-12-01T13:26:23.662Z,75.10
2022-12-01T13:29:01.655Z,75.00
2022-12-01T13:31:46.628Z,74.20
2022-12-01T13:34:47.771Z,73.40
2022-12-01T13:37:37.740Z,73.40
2022-12-01T13:40:20.225Z,73.70
2022-12-01T13:43:20.142Z,74.80
2022-12-01T13:45:48.997Z,73.10
2022-12-01T13:48:51.592Z,74.30
2022-12-01T13:51:21.044Z,73.60
2022-12-01T13:54:28.528Z,74.40
2022-12-01T13:57:28.297Z,74.00
2022-12-01T14:00:22.101Z,73.40
2022-12-01T14:03:14.938Z,74.00
2022-12-01T14:05:57.122Z,73.30
2022-12-01T14:08:30.834Z,73.90
2022-12-01T14:11:20.761Z,75.10
2022-12-01T14:13:56.550Z,74.20
2022-12-01T14:16:50.078Z,74.40
2022-12-01T14:19:51.934Z,74.40
2022-12-01T14:22:35.714Z,73.60
2022-12-01T14:25:20.956Z,73.90
2022-12-01T14:27:57.644Z,74.50
2022-12-01T14:30:41.240Z,74.60
2022-12-01T14:33:39.128Z,73.80
2022-12-01T14:36:42.992Z,74.00
2022-12-01T14:39:28.647Z,74.30
2022-12-01T14:43:10.485Z,74.30
